Time;durP1;ratioP1;P1;durP2;ratioP2;P2;SDS_P1;SDS_P2;PMS_P1;PMS_P2;Temp;Humidity;BMP_temperature;BMP_pressure;BME280_temperature;BME280_humidity;BME280_pressure;Samples;Min_cycle;Max_cycle;Signal;HPM_P1;HPM_P2
2023/08/19 00:01:03;;;;;;;8.02;5.78;;;;;;;18.44;58.89;97016.63;6203020;28;20037;-67
2023/08/19 00:04:05;;;;;;;8.70;5.70;;;;;;;18.39;59.37;97014.38;6213494;28;20081;-67
2023/08/19 00:07:09;;;;;;;9.65;6.28;;;;;;;18.30;59.75;97017.91;6199446;28;20038;-66
2023/08/19 00:10:10;;;;;;;9.00;6.20;;;;;;;18.31;59.85;97011.59;6203537;28;20065;-66
2023/08/19 00:13:11;;;;;;;7.88;6.13;;;;;;;18.28;59.92;97016.38;6215992;28;20037;-67
2023/08/19 00:16:15;;;;;;;9.60;6.05;;;;;;;18.19;59.89;96996.78;6203045;28;20058;-68
2023/08/19 00:19:19;;;;;;;11.80;6.57;;;;;;;18.18;60.26;97011.09;6197904;28;20038;-68
2023/08/19 00:22:22;;;;;;;9.30;6.10;;;;;;;18.15;60.15;97016.69;6172074;28;20064;-67
2023/08/19 00:25:26;;;;;;;9.95;6.25;;;;;;;18.16;60.34;97018.38;6198420;28;20505;-66
2023/08/19 00:28:32;;;;;;;8.73;6.20;;;;;;;18.11;60.37;97015.28;6192374;28;20061;-67
2023/08/19 00:31:33;;;;;;;12.48;7.03;;;;;;;18.02;60.55;97008.16;6208232;28;20425;-68
2023/08/19 00:34:37;;;;;;;9.32;6.43;;;;;;;17.94;60.81;97012.38;6206173;28;20520;-67
2023/08/19 00:37:44;;;;;;;8.02;6.43;;;;;;;17.93;60.91;97018.69;6200160;28;20046;-68
2023/08/19 00:40:51;;;;;;;10.18;5.95;;;;;;;17.89;60.88;97011.97;6212320;28;20060;-68
2023/08/19 00:43:57;;;;;;;10.00;6.70;;;;;;;17.86;61.00;97011.41;6200653;28;20038;-68
2023/08/19 00:47:03;;;;;;;10.07;6.40;;;;;;;17.87;61.00;97008.59;6199367;28;20038;-67
2023/08/19 00:50:10;;;;;;;8.98;6.57;;;;;;;17.86;61.01;97001.59;6203029;28;20042;-68
2023/08/19 00:53:18;;;;;;;7.57;6.03;;;;;;;17.86;61.12;97012.25;6211315;28;20050;-67
2023/08/19 00:56:22;;;;;;;8.20;6.55;;;;;;;17.83;61.10;97012.50;6202773;28;20033;-68
2023/08/19 00:59:23;;;;;;;7.93;5.97;;;;;;;17.77;61.19;97007.72;6213889;28;20482;-68
2023/08/19 01:02:24;;;;;;;7.82;6.55;;;;;;;17.82;61.29;97018.81;6209948;28;20555;-67
2023/08/19 01:05:32;;;;;;;;;;;;;;;17.76;60.85;97019.38;6195717;28;20037;-67
2023/08/19 01:08:57;;;;;;;13.52;6.63;;;;;;;17.86;60.93;97011.41;6217703;28;19921;-68
2023/08/19 01:12:06;;;;;;;12.65;7.13;;;;;;;17.86;61.12;97017.59;6196147;28;20038;-68
2023/08/19 01:15:15;;;;;;;14.20;8.07;;;;;;;17.89;61.18;97014.63;6206801;28;20130;-67
2023/08/19 01:18:17;;;;;;;16.83;7.20;;;;;;;17.92;61.07;97021.50;6208342;28;20053;-66
2023/08/19 01:21:21;;;;;;;26.73;15.50;;;;;;;17.98;60.78;97020.09;6206006;28;20529;-66
2023/08/19 01:24:27;;;;;;;16.17;9.30;;;;;;;18.06;60.48;97020.19;6213412;28;20484;-68
2023/08/19 01:27:31;;;;;;;18.77;10.30;;;;;;;18.13;60.32;97016.00;6210618;28;20624;-67
2023/08/19 01:30:37;;;;;;;11.75;8.38;;;;;;;18.18;60.35;97021.75;6198466;28;20197;-67
2023/08/19 01:33:38;;;;;;;;;;;;;;;18.14;60.08;97020.31;6204145;28;20053;-68
2023/08/19 01:36:48;;;;;;;13.45;7.55;;;;;;;18.18;60.40;97013.75;6214804;28;19921;-66
2023/08/19 01:39:55;;;;;;;14.38;7.47;;;;;;;18.21;60.19;97017.94;6206589;28;20097;-68
2023/08/19 01:42:59;;;;;;;13.20;8.32;;;;;;;18.25;60.01;97020.16;6188053;28;20132;-67
2023/08/19 01:46:08;;;;;;;17.20;8.30;;;;;;;18.31;60.02;97022.25;6191038;28;20046;-66
2023/08/19 01:49:09;;;;;;;12.00;8.27;;;;;;;18.33;59.77;97025.63;6202413;28;20046;-66
2023/08/19 01:52:16;;;;;;;;;;;;;;;18.35;59.63;97023.66;6207563;28;20042;-67
2023/08/19 01:55:22;;;;;;;14.80;9.75;;;;;;;18.39;59.69;97014.38;6214911;28;19956;-67
2023/08/19 01:58:25;;;;;;;22.52;12.98;;;;;;;18.49;59.82;97021.53;6205000;28;20046;-67
2023/08/19 02:01:29;;;;;;;17.00;10.38;;;;;;;18.54;59.43;97021.91;6201908;28;20045;-66
2023/08/19 02:04:33;;;;;;;15.88;9.43;;;;;;;18.58;59.64;97028.63;6196647;28;20038;-66
2023/08/19 02:07:35;;;;;;;14.45;7.72;;;;;;;18.65;59.40;97028.88;6207406;28;20050;-67
2023/08/19 02:10:43;;;;;;;11.70;7.20;;;;;;;18.68;59.27;97028.59;6196167;28;20042;-67
2023/08/19 02:13:44;;;;;;;22.95;12.55;;;;;;;18.79;59.52;97029.28;6203051;28;20640;-67
2023/08/19 02:16:48;;;;;;;18.95;12.43;;;;;;;18.93;59.22;97029.78;6202772;28;20100;-67
2023/08/19 02:19:52;;;;;;;16.27;8.88;;;;;;;19.01;59.14;97027.22;6211194;28;20041;-67
2023/08/19 02:22:58;;;;;;;16.75;10.48;;;;;;;19.11;59.10;97025.34;6188118;28;20073;-68
2023/08/19 02:26:02;;;;;;;17.85;12.10;;;;;;;19.24;59.26;97031.16;6195471;28;20080;-67
2023/08/19 02:29:03;;;;;;;;;;;;;;;19.27;58.75;97030.84;6198975;28;20077;-68
2023/08/19 02:32:07;;;;;;;14.77;9.10;;;;;;;19.39;59.12;97026.16;6207263;28;19960;-66
2023/08/19 02:35:10;;;;;;;19.20;12.40;;;;;;;19.52;59.13;97029.28;6203855;28;20046;-67
2023/08/19 02:38:13;;;;;;;16.95;10.25;;;;;;;19.64;59.58;97032.56;6200515;28;20046;-67
2023/08/19 02:41:17;;;;;;;14.55;10.20;;;;;;;19.78;59.21;97035.72;6197798;28;20050;-67
2023/08/19 02:44:21;;;;;;;13.05;8.77;;;;;;;19.88;59.26;97039.16;6204126;28;20038;-67
2023/08/19 02:47:22;;;;;;;11.85;8.35;;;;;;;19.99;59.04;97030.91;6194686;28;20057;-68
2023/08/19 02:50:24;;;;;;;11.00;8.18;;;;;;;20.12;58.95;97031.34;6209513;28;20045;-67
2023/08/19 02:53:26;;;;;;;12.10;8.30;;;;;;;20.23;58.39;97032.09;6207610;28;20038;-67
2023/08/19 02:56:28;;;;;;;13.65;7.32;;;;;;;20.35;58.56;97030.84;6206894;28;20042;-67
2023/08/19 02:59:35;;;;;;;12.98;9.00;;;;;;;20.44;58.51;97029.91;6198450;28;20038;-67
2023/08/19 03:02:36;;;;;;;36.05;22.48;;;;;;;20.60;58.00;97035.38;6204790;28;20034;-68
2023/08/19 03:05:41;;;;;;;14.73;9.90;;;;;;;20.73;57.37;97026.09;6199019;28;20141;-68
2023/08/19 03:08:44;;;;;;;12.95;8.63;;;;;;;20.85;57.13;97027.50;6187782;28;20050;-68
2023/08/19 03:11:46;;;;;;;13.18;8.18;;;;;;;20.98;56.75;97033.25;6194003;28;20101;-68
2023/08/19 03:14:49;;;;;;;11.95;7.82;;;;;;;21.12;56.58;97033.59;6208313;28;20050;-67
2023/08/19 03:17:50;;;;;;;15.30;7.50;;;;;;;21.23;56.45;97019.94;6200750;28;20049;-67
2023/08/19 03:20:58;;;;;;;13.02;8.00;;;;;;;21.39;56.64;97036.06;6201966;28;20070;-69
2023/08/19 03:24:00;;;;;;;10.10;7.18;;;;;;;21.55;57.02;97029.09;6203321;28;20041;-68
2023/08/19 03:27:01;;;;;;;10.57;7.50;;;;;;;21.72;56.72;97030.81;6203698;28;20050;-68
2023/08/19 03:30:04;;;;;;;15.15;9.10;;;;;;;21.89;56.67;97032.50;6188370;28;20471;-67
2023/08/19 03:33:13;;;;;;;9.40;7.97;;;;;;;22.05;56.43;97025.44;6198761;28;20116;-68
2023/08/19 03:36:14;;;;;;;13.50;9.73;;;;;;;22.21;56.31;97020.13;6194432;28;20050;-68
2023/08/19 03:39:20;;;;;;;12.38;8.82;;;;;;;22.38;55.72;97027.13;6202728;28;20042;-68
2023/08/19 03:42:25;;;;;;;11.63;8.40;;;;;;;22.58;54.80;97021.41;6195604;28;20050;-67
2023/08/19 03:45:26;;;;;;;11.23;8.63;;;;;;;22.82;54.42;97023.19;6202492;28;20064;-68
2023/08/19 03:48:34;;;;;;;11.98;8.38;;;;;;;22.94;54.13;97027.16;6200474;28;20046;-67
2023/08/19 03:51:37;;;;;;;9.35;8.38;;;;;;;23.18;53.26;97031.63;6207359;28;20405;-68
2023/08/19 03:54:41;;;;;;;14.13;8.98;;;;;;;23.28;53.30;97026.88;6192909;28;20034;-68
2023/08/19 03:57:42;;;;;;;12.02;8.40;;;;;;;23.43;52.29;97023.44;6213111;28;20473;-68
2023/08/19 04:00:44;;;;;;;11.77;8.02;;;;;;;23.61;51.60;97028.53;6204054;28;20042;-68
2023/08/19 04:03:45;;;;;;;10.90;7.65;;;;;;;23.89;49.60;97023.50;6208583;28;20082;-67
2023/08/19 04:06:49;;;;;;;10.07;6.72;;;;;;;24.13;47.40;97026.00;6198168;28;20038;-67
2023/08/19 04:09:51;;;;;;;8.57;6.22;;;;;;;24.36;45.56;97011.69;6198565;28;20051;-67
2023/08/19 04:12:54;;;;;;;8.50;6.55;;;;;;;24.53;44.85;97018.59;6189480;28;20112;-67
2023/08/19 04:16:03;;;;;;;9.23;6.15;;;;;;;24.74;44.88;97014.34;6203070;28;20508;-69
2023/08/19 04:19:09;;;;;;;;;;;;;;;24.91;44.63;97010.47;6206931;28;20049;-68
2023/08/19 04:22:17;;;;;;;9.00;6.13;;;;;;;25.04;43.39;97007.94;6203579;28;20016;-68
2023/08/19 04:25:22;;;;;;;9.90;7.28;;;;;;;25.27;42.45;97010.53;6200504;28;20042;-66
2023/08/19 04:28:26;;;;;;;8.63;6.40;;;;;;;25.42;42.45;97015.06;6205754;28;20050;-68
2023/08/19 04:31:37;;;;;;;8.20;6.03;;;;;;;25.58;42.04;97014.00;6206490;28;20037;-67
2023/08/19 04:34:41;;;;;;;7.20;5.35;;;;;;;25.72;41.48;97021.19;6204200;28;20057;-67
2023/08/19 04:37:43;;;;;;;9.38;5.80;;;;;;;25.90;40.99;97021.63;6206720;28;20456;-67
2023/08/19 04:40:44;;;;;;;9.10;6.57;;;;;;;26.02;40.58;97010.34;6220244;28;20052;-66
2023/08/19 04:43:49;;;;;;;8.40;7.28;;;;;;;26.18;40.11;97007.34;6199233;28;20838;-68
2023/08/19 04:46:53;;;;;;;8.30;6.70;;;;;;;26.25;40.08;97007.41;6207284;28;20133;-68
2023/08/19 04:49:55;;;;;;;7.45;6.32;;;;;;;26.32;40.13;97006.44;6195249;28;20046;-68
2023/08/19 04:52:59;;;;;;;9.20;6.53;;;;;;;26.49;39.91;97011.53;6203887;28;20301;-68
2023/08/19 04:56:04;;;;;;;9.15;5.90;;;;;;;26.61;39.76;97007.28;6209081;28;20430;-67
2023/08/19 04:59:07;;;;;;;7.78;6.72;;;;;;;26.88;38.87;97003.72;6212238;28;20046;-68
2023/08/19 05:02:11;;;;;;;10.43;7.85;;;;;;;29.07;35.44;97003.28;6203172;28;20038;-68
2023/08/19 05:05:15;;;;;;;8.98;6.43;;;;;;;32.54;30.44;97007.00;6207632;28;20060;-68
2023/08/19 05:08:19;;;;;;;9.45;5.53;;;;;;;35.36;25.73;97020.44;6202973;28;20192;-70
2023/08/19 05:11:21;;;;;;;5.40;4.50;;;;;;;37.82;22.64;97018.63;6201030;28;20096;-69
2023/08/19 05:14:25;;;;;;;7.53;4.40;;;;;;;39.58;20.77;97027.38;6201807;28;20057;-67
2023/08/19 05:17:29;;;;;;;6.57;4.40;;;;;;;41.37;18.96;97017.72;6197845;28;20521;-68
2023/08/19 05:20:34;;;;;;;5.60;4.63;;;;;;;43.03;17.38;97018.56;6210370;28;20046;-71
2023/08/19 05:23:39;;;;;;;4.43;3.92;;;;;;;44.46;15.94;97021.13;6204945;28;20046;-70
2023/08/19 05:26:46;;;;;;;5.07;3.97;;;;;;;45.53;15.43;97022.22;6201680;28;20517;-69
2023/08/19 05:29:48;;;;;;;4.65;4.10;;;;;;;46.75;14.15;97021.19;6221762;28;20172;-73
2023/08/19 05:32:52;;;;;;;4.60;3.97;;;;;;;47.48;13.35;97020.31;6201634;28;20072;-70
2023/08/19 05:35:55;;;;;;;4.95;3.83;;;;;;;48.07;12.52;97023.06;6212704;28;20038;-68
2023/08/19 05:38:59;;;;;;;6.22;3.75;;;;;;;49.14;12.23;97019.78;6218847;28;20050;-67
2023/08/19 05:42:02;;;;;;;3.75;3.38;;;;;;;49.63;11.53;97022.63;6206751;28;20029;-67
2023/08/19 05:45:07;;;;;;;4.82;4.05;;;;;;;49.38;12.11;97028.22;6196862;28;20042;-70
2023/08/19 05:48:13;;;;;;;6.25;3.58;;;;;;;50.12;11.48;97027.34;6216655;28;20417;-68
2023/08/19 05:51:15;;;;;;;5.63;3.33;;;;;;;50.94;10.91;97018.50;6220363;28;20077;-69
2023/08/19 05:54:19;;;;;;;5.70;3.40;;;;;;;51.15;10.58;97024.69;6199272;28;20053;-66
2023/08/19 05:57:24;;;;;;;4.47;3.50;;;;;;;51.46;10.50;97013.84;6195791;28;20054;-73
2023/08/19 06:00:29;;;;;;;5.45;3.10;;;;;;;51.98;10.26;97018.25;6204143;28;20042;-72
2023/08/19 06:03:30;;;;;;;4.35;3.55;;;;;;;52.53;10.09;97014.28;6201634;28;20038;-67
2023/08/19 06:06:33;;;;;;;4.18;3.60;;;;;;;53.19;9.43;97017.13;6198197;28;20135;-68
2023/08/19 06:09:38;;;;;;;3.60;3.30;;;;;;;53.75;8.77;97010.81;6203597;28;20119;-68
2023/08/19 06:12:43;;;;;;;8.75;3.95;;;;;;;53.67;8.79;96997.84;6197726;28;20050;-71
2023/08/19 06:15:50;;;;;;;4.68;3.33;;;;;;;54.44;8.41;97009.75;6197988;28;20663;-69
2023/08/19 06:18:58;;;;;;;3.60;2.87;;;;;;;55.01;8.09;97001.13;6214400;28;20072;-69
2023/08/19 06:22:01;;;;;;;4.05;2.75;;;;;;;54.82;8.29;96999.34;6204366;28;20483;-70
2023/08/19 06:25:03;;;;;;;4.68;2.65;;;;;;;54.90;8.37;96998.22;6191008;28;20053;-70
2023/08/19 06:28:11;;;;;;;4.82;3.08;;;;;;;54.07;8.96;96985.13;6197584;28;20054;-73
2023/08/19 06:31:19;;;;;;;5.70;3.60;;;;;;;53.72;8.81;96988.28;6196567;28;20065;-71
2023/08/19 06:34:23;;;;;;;6.95;4.07;;;;;;;50.33;10.54;96984.00;6204737;28;20046;-69
2023/08/19 06:37:33;;;;;;;4.30;3.60;;;;;;;48.09;11.72;96967.72;6210313;28;20054;-69
2023/08/19 06:40:54;;;;;;;5.03;3.38;;;;;;;47.20;11.85;96959.44;6209768;28;20100;-69
2023/08/19 06:44:04;;;;;;;4.65;3.45;;;;;;;46.67;12.19;96960.78;6214005;28;20535;-72
2023/08/19 06:47:13;;;;;;;3.90;2.92;;;;;;;45.19;13.31;96965.38;6203813;28;20506;-68
2023/08/19 06:50:15;;;;;;;7.10;4.03;;;;;;;42.89;15.17;96946.63;6207969;28;20128;-68
2023/08/19 06:53:18;;;;;;;4.28;3.88;;;;;;;44.25;14.12;96954.22;6214402;28;20045;-68
2023/08/19 06:56:37;;;;;;;5.25;3.92;;;;;;;46.27;12.86;96955.41;6203505;28;20144;-68
2023/08/19 06:59:46;;;;;;;4.47;3.70;;;;;;;47.00;12.47;96954.59;6210013;28;20103;-68
2023/08/19 07:02:53;;;;;;;4.88;3.83;;;;;;;48.46;11.54;96951.16;6203679;28;20057;-70
2023/08/19 07:06:02;;;;;;;4.30;3.90;;;;;;;49.62;10.70;96953.88;6197857;28;20546;-73
2023/08/19 07:09:06;;;;;;;4.80;3.42;;;;;;;49.43;10.69;96952.50;6204705;28;20569;-74
2023/08/19 07:12:10;;;;;;;6.47;3.83;;;;;;;46.31;12.56;96945.25;6208330;28;20116;-69
2023/08/19 07:15:12;;;;;;;4.38;3.97;;;;;;;43.39;14.40;96935.63;6195920;28;20042;-70
2023/08/19 07:18:24;;;;;;;7.03;4.80;;;;;;;40.47;16.52;96922.63;6204561;28;20041;-67
2023/08/19 07:21:28;;;;;;;6.22;4.38;;;;;;;39.46;17.37;96919.47;6196004;28;20133;-68
2023/08/19 07:24:31;;;;;;;8.90;4.85;;;;;;;38.37;18.48;96893.38;6201567;28;20111;-67
2023/08/19 07:27:37;;;;;;;5.95;5.25;;;;;;;38.78;18.91;96912.56;6197580;28;20038;-68
2023/08/19 07:30:39;;;;;;;7.90;5.25;;;;;;;39.13;18.30;96908.06;6203006;28;20621;-69
2023/08/19 07:33:44;;;;;;;6.28;4.75;;;;;;;41.78;16.36;96911.41;6207926;28;20145;-68
2023/08/19 07:36:45;;;;;;;5.22;4.50;;;;;;;43.74;14.26;96910.22;6202101;28;20132;-69
2023/08/19 07:39:53;;;;;;;5.32;3.97;;;;;;;45.01;13.63;96918.09;6208776;28;20074;-68
2023/08/19 07:42:57;;;;;;;5.18;4.22;;;;;;;45.66;13.07;96921.19;6207590;28;20053;-69
2023/08/19 07:46:01;;;;;;;4.78;4.07;;;;;;;46.79;12.05;96932.22;6199408;28;20042;-69
2023/08/19 07:49:04;;;;;;;6.20;4.15;;;;;;;47.83;11.86;96937.28;6212175;28;20038;-68
2023/08/19 07:52:09;;;;;;;4.03;3.25;;;;;;;49.20;10.59;96937.31;6194911;28;20437;-69
2023/08/19 07:55:16;;;;;;;3.67;3.35;;;;;;;49.60;9.93;96929.09;6209579;28;20046;-69
2023/08/19 07:58:17;;;;;;;4.22;3.13;;;;;;;50.62;9.43;96937.22;6201707;28;20053;-70
2023/08/19 08:01:22;;;;;;;3.50;3.10;;;;;;;50.58;8.97;96929.88;6206919;28;20038;-69
2023/08/19 08:04:31;;;;;;;4.07;3.67;;;;;;;50.76;9.05;96915.22;6205212;28;20038;-70
2023/08/19 08:07:38;;;;;;;5.32;3.60;;;;;;;52.44;8.50;96932.25;6214117;28;20046;-70
2023/08/19 08:10:42;;;;;;;2.97;2.67;;;;;;;53.49;7.82;96940.50;6205488;28;20115;-70
2023/08/19 08:13:47;;;;;;;2.60;2.40;;;;;;;54.17;6.88;96924.53;6206303;28;20525;-69
2023/08/19 08:16:48;;;;;;;7.00;3.70;;;;;;;53.14;9.28;96939.53;6203009;28;20081;-69
2023/08/19 08:19:56;;;;;;;5.28;4.10;;;;;;;48.87;11.59;96935.47;6191695;28;20302;-69
2023/08/19 08:23:02;;;;;;;6.25;4.40;;;;;;;44.89;14.00;96928.97;6206308;28;20136;-68
2023/08/19 08:26:08;;;;;;;6.63;5.10;;;;;;;41.62;17.24;96908.06;6199199;28;20045;-68
2023/08/19 08:29:16;;;;;;;7.38;6.55;;;;;;;39.00;18.63;96895.72;6211832;28;20043;-69
2023/08/19 08:32:19;;;;;;;5.88;5.32;;;;;;;37.72;19.88;96895.84;6215695;28;20654;-68
2023/08/19 08:35:23;;;;;;;5.90;5.40;;;;;;;36.92;20.50;96897.25;6203206;28;20498;-71
2023/08/19 08:38:25;;;;;;;6.60;5.40;;;;;;;39.43;18.13;96907.09;6200886;28;20159;-70
2023/08/19 08:41:31;;;;;;;5.57;5.07;;;;;;;43.14;15.14;96914.84;6200735;28;20129;-69
2023/08/19 08:44:37;;;;;;;7.10;5.63;;;;;;;46.22;13.02;96919.41;6189530;28;20060;-68
2023/08/19 08:47:42;;;;;;;5.03;4.53;;;;;;;48.72;11.20;96922.16;6197560;28;20053;-68
2023/08/19 08:50:46;;;;;;;5.85;4.70;;;;;;;50.29;9.88;96913.13;6198720;28;20049;-69
2023/08/19 08:53:56;;;;;;;4.47;4.18;;;;;;;50.93;9.74;96921.59;6205576;28;20088;-70
2023/08/19 08:57:02;;;;;;;6.07;4.97;;;;;;;51.73;9.15;96914.75;6205956;28;20180;-68
2023/08/19 09:00:05;;;;;;;6.38;4.57;;;;;;;49.68;10.28;96913.31;6205494;28;20430;-69
2023/08/19 09:03:10;;;;;;;4.85;3.85;;;;;;;47.39;11.23;96900.50;6211278;28;20046;-68
2023/08/19 09:06:18;;;;;;;9.65;5.25;;;;;;;46.77;12.53;96890.81;6181292;28;20058;-70
2023/08/19 09:09:30;;;;;;;12.10;6.60;;;;;;;46.62;14.42;96891.31;6205941;28;20042;-68
2023/08/19 09:12:35;;;;;;;16.80;6.20;;;;;;;47.00;14.27;96888.56;6192296;28;20143;-70
2023/08/19 09:15:37;;;;;;;15.50;6.22;;;;;;;47.77;13.42;96882.03;6209933;28;20531;-69
2023/08/19 09:18:42;;;;;;;9.05;5.68;;;;;;;48.52;13.07;96874.41;6206935;28;20046;-68
2023/08/19 09:21:47;;;;;;;6.32;5.43;;;;;;;49.79;12.21;96869.69;6212235;28;20137;-69
2023/08/19 09:24:54;;;;;;;7.07;5.53;;;;;;;50.89;11.08;96875.88;6210265;28;20041;-69
2023/08/19 09:27:58;;;;;;;8.65;5.05;;;;;;;51.33;10.17;96872.94;6199892;28;20133;-70
2023/08/19 09:31:24;;;;;;;4.93;4.53;;;;;;;51.88;10.21;96882.19;6202739;28;20041;-69
2023/08/19 09:34:28;;;;;;;5.72;5.10;;;;;;;52.08;9.58;96885.81;6206055;28;20049;-67
2023/08/19 09:37:34;;;;;;;5.07;4.57;;;;;;;51.64;9.23;96878.47;6201592;28;20053;-66
2023/08/19 09:40:42;;;;;;;3.92;3.63;;;;;;;51.11;9.33;96878.03;6201834;28;20554;-70
2023/08/19 09:43:48;;;;;;;5.70;4.60;;;;;;;50.85;9.76;96878.59;6205063;28;20049;-72
2023/08/19 09:46:56;;;;;;;4.57;4.18;;;;;;;51.02;9.77;96874.63;6206422;28;20046;-71
2023/08/19 09:50:00;;;;;;;4.45;3.90;;;;;;;51.10;9.63;96868.03;6203105;28;20104;-71
2023/08/19 09:53:06;;;;;;;4.55;4.13;;;;;;;48.91;10.56;96852.59;6189070;28;20430;-74
2023/08/19 09:56:20;;;;;;;5.05;4.53;;;;;;;47.61;11.63;96845.59;6203720;28;20509;-72
2023/08/19 09:59:27;;;;;;;5.47;4.30;;;;;;;45.28;12.91;96835.66;6195503;28;20532;-72
2023/08/19 10:02:32;;;;;;;5.90;5.22;;;;;;;41.74;16.08;96839.34;6205419;28;20038;-71
2023/08/19 10:05:48;;;;;;;5.45;4.50;;;;;;;39.17;18.14;96829.34;6207811;28;20054;-71
2023/08/19 10:08:59;;;;;;;7.50;5.68;;;;;;;37.37;20.14;96816.16;6205066;28;20030;-73
2023/08/19 10:12:06;;;;;;;7.32;5.88;;;;;;;36.84;20.86;96816.31;6203752;28;20374;-72
2023/08/19 10:15:12;;;;;;;8.23;5.35;;;;;;;37.32;20.41;96817.00;6204591;28;20588;-74
2023/08/19 10:18:21;;;;;;;6.75;5.82;;;;;;;37.71;19.97;96822.00;6201451;28;20053;-72
2023/08/19 10:21:24;;;;;;;8.88;6.40;;;;;;;37.65;20.02;96820.34;6199521;28;20088;-74
2023/08/19 10:24:31;;;;;;;7.30;6.38;;;;;;;37.56;20.43;96813.75;6198291;28;20038;-73
2023/08/19 10:27:35;;;;;;;6.53;5.88;;;;;;;37.69;19.49;96810.47;6201051;28;20180;-73
2023/08/19 10:30:39;;;;;;;8.35;5.82;;;;;;;37.80;19.02;96806.63;6201723;28;20445;-71
2023/08/19 10:33:46;;;;;;;6.47;5.88;;;;;;;37.60;19.37;96817.63;6203897;28;20141;-70
2023/08/19 10:37:07;;;;;;;9.30;6.15;;;;;;;36.86;19.54;96809.47;6198229;28;20034;-71
2023/08/19 10:40:12;;;;;;;7.10;5.40;;;;;;;36.04;20.35;96808.19;6199270;28;20050;-73
2023/08/19 10:43:13;;;;;;;8.80;5.88;;;;;;;35.47;21.19;96804.16;6188483;28;20093;-71
2023/08/19 10:46:20;;;;;;;6.80;5.43;;;;;;;34.95;21.35;96812.09;6206096;28;20044;-71
2023/08/19 10:49:36;;;;;;;7.20;5.90;;;;;;;34.52;21.92;96808.28;6201176;28;20050;-72
2023/08/19 10:52:59;;;;;;;5.63;5.13;;;;;;;34.39;21.35;96810.28;6200664;28;20537;-72
2023/08/19 10:56:13;;;;;;;5.15;4.65;;;;;;;35.17;20.13;96812.91;6202129;28;20049;-71
2023/08/19 10:59:20;;;;;;;6.00;4.50;;;;;;;36.04;19.44;96819.13;6194567;28;20042;-70
2023/08/19 11:02:32;;;;;;;10.93;7.70;;;;;;;36.48;19.92;96820.78;6198925;28;20421;-71
2023/08/19 11:05:46;;;;;;;13.83;7.53;;;;;;;37.35;19.77;96821.94;6200750;28;20042;-71
2023/08/19 11:08:57;;;;;;;10.88;6.80;;;;;;;37.81;19.38;96837.66;6195106;28;20039;-71
2023/08/19 11:12:02;;;;;;;8.45;5.55;;;;;;;37.04;20.72;96838.34;6188309;28;20081;-73
2023/08/19 11:15:04;;;;;;;7.85;6.47;;;;;;;36.70;21.39;96837.09;6206936;28;20054;-71
2023/08/19 11:18:08;;;;;;;9.02;6.65;;;;;;;36.77;21.36;96826.69;6181850;28;20042;-70
2023/08/19 11:21:09;;;;;;;7.00;5.73;;;;;;;36.24;21.43;96823.13;6203606;28;20120;-72
2023/08/19 11:24:11;;;;;;;9.67;5.87;;;;;;;35.32;22.42;96820.41;6203906;28;20046;-72
2023/08/19 11:27:20;;;;;;;7.63;6.20;;;;;;;34.34;23.22;96821.16;6195022;28;20062;-72
2023/08/19 11:30:24;;;;;;;7.43;6.45;;;;;;;33.66;23.84;96838.63;6203374;28;20149;-72
2023/08/19 11:33:28;;;;;;;9.90;6.80;;;;;;;33.07;24.42;96847.94;6209274;28;20038;-72
2023/08/19 11:36:29;;;;;;;12.65;7.68;;;;;;;32.62;26.37;96867.72;6198060;28;20046;-72
2023/08/19 11:39:35;;;;;;;11.93;8.30;;;;;;;31.77;27.61;96863.53;6204441;28;20129;-73
2023/08/19 11:42:41;;;;;;;9.23;8.30;;;;;;;30.98;28.40;96857.38;6201360;28;20042;-72
2023/08/19 11:45:47;;;;;;;9.43;7.82;;;;;;;30.24;30.02;96861.97;6200561;28;20050;-72
2023/08/19 11:48:51;;;;;;;9.65;8.20;;;;;;;29.61;31.78;96853.91;6204390;28;20042;-72
2023/08/19 11:52:00;;;;;;;10.48;9.38;;;;;;;28.90;33.43;96865.78;6194926;28;20042;-71
2023/08/19 11:55:07;;;;;;;10.98;9.68;;;;;;;28.37;35.36;96874.91;6200627;28;20046;-72
2023/08/19 11:58:11;;;;;;;11.18;9.90;;;;;;;27.78;36.73;96868.50;6193722;28;20046;-72
2023/08/19 12:01:23;;;;;;;11.13;9.95;;;;;;;27.47;36.96;96850.19;6202448;28;20136;-71
2023/08/19 12:04:26;;;;;;;13.85;9.32;;;;;;;27.14;37.57;96859.03;6198573;28;20129;-71
2023/08/19 12:07:30;;;;;;;10.50;9.40;;;;;;;27.05;37.66;96857.56;6196361;28;20037;-71
2023/08/19 12:10:40;;;;;;;11.05;9.38;;;;;;;27.02;37.56;96848.00;6204163;28;20090;-71
2023/08/19 12:13:42;;;;;;;10.75;8.48;;;;;;;26.98;36.94;96840.53;6201320;28;20522;-71
2023/08/19 12:16:47;;;;;;;9.95;8.68;;;;;;;27.12;37.35;96846.78;6198028;28;20054;-72
2023/08/19 12:19:51;;;;;;;10.90;9.38;;;;;;;27.17;38.03;96845.16;6189756;28;20052;-71
2023/08/19 12:22:52;;;;;;;11.93;9.50;;;;;;;27.11;39.48;96843.25;6199092;28;20422;-71
2023/08/19 12:25:58;;;;;;;9.93;8.88;;;;;;;27.49;40.60;96842.72;6205161;28;20489;-70
2023/08/19 12:28:59;;;;;;;13.88;10.10;;;;;;;27.93;41.45;96833.16;6175424;28;20050;-71
2023/08/19 12:32:06;;;;;;;12.02;10.02;;;;;;;28.63;40.13;96834.25;6180878;28;20050;-71
2023/08/19 12:35:12;;;;;;;10.07;8.93;;;;;;;29.20;38.54;96834.38;6179702;28;20050;-72
2023/08/19 12:38:21;;;;;;;12.32;9.80;;;;;;;29.67;37.62;96834.91;6180696;28;20050;-71
2023/08/19 12:41:24;;;;;;;14.93;10.43;;;;;;;30.21;35.98;96835.25;6181168;28;20799;-71
2023/08/19 12:44:26;;;;;;;13.15;9.32;;;;;;;30.62;35.27;96833.75;6180655;28;20046;-71
2023/08/19 12:47:30;;;;;;;12.10;8.80;;;;;;;30.95;33.89;96827.13;6181331;28;20129;-71
2023/08/19 12:50:31;;;;;;;11.63;8.68;;;;;;;31.27;32.14;96833.13;6181705;28;20057;-71
2023/08/19 12:53:38;;;;;;;11.65;8.20;;;;;;;31.52;31.54;96832.97;6178421;28;20429;-71
2023/08/19 12:56:42;;;;;;;9.60;7.25;;;;;;;31.80;30.67;96836.94;6171953;28;20046;-74
2023/08/19 12:59:43;;;;;;;12.48;8.15;;;;;;;31.91;30.51;96838.88;6175332;28;20070;-70
2023/08/19 13:02:45;;;;;;;13.35;7.53;;;;;;;31.88;30.41;96844.75;6160129;28;20193;-73
2023/08/19 13:05:49;;;;;;;13.43;8.10;;;;;;;31.72;29.27;96836.19;6160424;28;20038;-74
2023/08/19 13:08:51;;;;;;;10.95;8.65;;;;;;;31.46;29.03;96845.63;6184474;28;20045;-70
2023/08/19 13:11:57;;;;;;;14.90;8.38;;;;;;;31.05;29.57;96860.81;6175579;28;20039;-70
2023/08/19 13:15:01;;;;;;;19.15;9.55;;;;;;;30.62;29.82;96852.78;6176888;28;21782;-70
2023/08/19 13:18:05;;;;;;;19.55;10.48;;;;;;;30.19;29.64;96849.03;6184221;28;20417;-70
2023/08/19 13:21:06;;;;;;;11.18;8.02;;;;;;;29.71;29.51;96851.56;6179985;28;20042;-69
2023/08/19 13:24:08;;;;;;;13.15;8.73;;;;;;;29.54;29.67;96852.06;6174633;28;20116;-71
2023/08/19 13:27:10;;;;;;;9.85;8.10;;;;;;;29.15;30.65;96855.88;6187421;28;20200;-69
2023/08/19 13:30:12;;;;;;;21.70;8.35;;;;;;;28.91;31.40;96857.44;6198533;28;20038;-69
2023/08/19 13:33:16;;;;;;;11.17;9.13;;;;;;;28.82;32.43;96869.59;6195884;28;20042;-71
2023/08/19 13:36:17;;;;;;;9.68;8.30;;;;;;;28.43;33.01;96876.78;6197488;28;20449;-67
2023/08/19 13:39:21;;;;;;;11.68;9.40;;;;;;;28.15;34.54;96894.09;6204178;28;20050;-69
2023/08/19 13:42:27;;;;;;;16.20;8.98;;;;;;;27.97;37.31;96899.31;6190119;28;20609;-70
2023/08/19 13:45:34;;;;;;;12.90;9.85;;;;;;;27.51;39.15;96922.53;6201051;28;20506;-74
2023/08/19 13:48:40;;;;;;;11.55;9.48;;;;;;;27.17;40.53;96931.59;6181084;28;20278;-68
2023/08/19 13:51:47;;;;;;;11.38;9.20;;;;;;;26.76;42.24;96929.75;6200043;28;20045;-75
2023/08/19 13:54:55;;;;;;;11.13;8.93;;;;;;;26.27;43.77;96930.69;6195448;28;20533;-72
2023/08/19 13:57:56;;;;;;;10.65;8.32;;;;;;;25.94;45.02;96920.47;6198923;28;20046;-68
2023/08/19 14:01:10;;;;;;;9.20;7.90;;;;;;;25.68;45.71;96920.22;6195672;28;20072;-74
2023/08/19 14:04:14;;;;;;;12.85;9.73;;;;;;;25.53;46.58;96921.13;6202579;28;20149;-70
2023/08/19 14:07:23;;;;;;;10.93;9.50;;;;;;;25.30;47.23;96933.91;6196716;28;20038;-71
2023/08/19 14:10:31;;;;;;;10.18;8.45;;;;;;;25.14;47.38;96950.25;6206783;28;20049;-70
2023/08/19 14:13:35;;;;;;;10.00;7.60;;;;;;;24.90;47.57;96964.91;6199199;28;20518;-71
2023/08/19 14:16:53;;;;;;;9.48;7.47;;;;;;;24.75;47.19;96999.91;6197529;28;20046;-71
2023/08/19 14:19:59;;;;;;;7.18;6.38;;;;;;;24.58;47.92;97016.22;6202532;28;20639;-79
2023/08/19 14:23:00;;;;;;;10.13;7.57;;;;;;;24.49;48.30;97022.69;6205027;28;20205;-76
2023/08/19 14:26:03;;;;;;;7.93;7.13;;;;;;;24.18;48.54;97030.84;6200886;28;20418;-81
2023/08/19 14:29:07;;;;;;;14.48;8.15;;;;;;;23.63;49.00;97031.88;6212067;28;20046;-78